Terminal Aerodrome Forecast
Issued by NWS La Crosse, WI

Home | Current Version | Previous Version | Text Only | Print | Product List | Glossary On
Versions: 1 2 3 4 5 6 7 8 9 10 11 12 13 14 15 16 17 18 19 20 21 22 23 24 25 26 27 28 29 30 31 32 33
000
FTUS43 KARX 290525
TAFLSE
TAF
KLSE 290525Z 2906/3006 23006KT P6SM BKN150
     FM290800 28008KT P6SM BKN250
     FM291600 27016G24KT P6SM SKC
     FM300100 24008KT P6SM SKC=

USA.gov is the U.S. government's official web portal to all federal, state and local government web resources and services.